sensor_id;sensor_type;location;lat;lon;timestamp;P1;durP1;ratioP1;P2;durP2;ratioP2
33152;SDS011;19509;43.862;26.176;2023-06-26T00:01:19;1.30;;;1.30;;
33152;SDS011;19509;43.862;26.176;2023-06-26T00:03:47;1.03;;;1.03;;
33152;SDS011;19509;43.862;26.176;2023-06-26T00:06:13;1.27;;;1.17;;
33152;SDS011;19509;43.862;26.176;2023-06-26T00:08:38;1.23;;;1.13;;
33152;SDS011;19509;43.862;26.176;2023-06-26T00:11:04;1.20;;;1.20;;
33152;SDS011;19509;43.862;26.176;2023-06-26T00:13:29;1.37;;;1.27;;
33152;SDS011;19509;43.862;26.176;2023-06-26T00:15:55;1.20;;;1.20;;
33152;SDS011;19509;43.862;26.176;2023-06-26T00:18:20;1.07;;;1.07;;
33152;SDS011;19509;43.862;26.176;2023-06-26T00:20:46;1.10;;;1.10;;
33152;SDS011;19509;43.862;26.176;2023-06-26T00:23:12;0.73;;;0.73;;
33152;SDS011;19509;43.862;26.176;2023-06-26T00:25:38;0.90;;;0.90;;
33152;SDS011;19509;43.862;26.176;2023-06-26T00:28:04;0.83;;;0.83;;
33152;SDS011;19509;43.862;26.176;2023-06-26T00:30:29;0.93;;;0.93;;
33152;SDS011;19509;43.862;26.176;2023-06-26T00:32:55;0.90;;;0.90;;
33152;SDS011;19509;43.862;26.176;2023-06-26T00:35:20;1.30;;;1.20;;
33152;SDS011;19509;43.862;26.176;2023-06-26T00:37:46;0.90;;;0.90;;
33152;SDS011;19509;43.862;26.176;2023-06-26T00:40:12;0.80;;;0.80;;
33152;SDS011;19509;43.862;26.176;2023-06-26T00:42:38;0.97;;;0.97;;
33152;SDS011;19509;43.862;26.176;2023-06-26T00:45:03;1.10;;;1.10;;
33152;SDS011;19509;43.862;26.176;2023-06-26T00:47:29;0.83;;;0.83;;
33152;SDS011;19509;43.862;26.176;2023-06-26T00:49:55;1.00;;;1.00;;
33152;SDS011;19509;43.862;26.176;2023-06-26T00:52:20;0.90;;;0.90;;
33152;SDS011;19509;43.862;26.176;2023-06-26T00:54:46;1.03;;;1.03;;
33152;SDS011;19509;43.862;26.176;2023-06-26T00:57:13;0.90;;;0.90;;
33152;SDS011;19509;43.862;26.176;2023-06-26T00:59:38;1.03;;;0.93;;
33152;SDS011;19509;43.862;26.176;2023-06-26T01:02:04;1.00;;;0.90;;
33152;SDS011;19509;43.862;26.176;2023-06-26T01:04:29;0.90;;;0.90;;
33152;SDS011;19509;43.862;26.176;2023-06-26T01:06:57;0.67;;;0.67;;
33152;SDS011;19509;43.862;26.176;2023-06-26T01:09:24;0.87;;;0.80;;
33152;SDS011;19509;43.862;26.176;2023-06-26T01:11:51;0.80;;;0.80;;
33152;SDS011;19509;43.862;26.176;2023-06-26T01:14:17;0.70;;;0.70;;
33152;SDS011;19509;43.862;26.176;2023-06-26T01:16:43;0.80;;;0.80;;
33152;SDS011;19509;43.862;26.176;2023-06-26T01:19:19;0.70;;;0.70;;
33152;SDS011;19509;43.862;26.176;2023-06-26T01:21:50;0.70;;;0.70;;
33152;SDS011;19509;43.862;26.176;2023-06-26T01:24:22;0.60;;;0.60;;
33152;SDS011;19509;43.862;26.176;2023-06-26T01:26:52;0.70;;;0.70;;
33152;SDS011;19509;43.862;26.176;2023-06-26T01:29:18;0.70;;;0.70;;
33152;SDS011;19509;43.862;26.176;2023-06-26T01:31:44;0.60;;;0.60;;
33152;SDS011;19509;43.862;26.176;2023-06-26T01:34:14;0.73;;;0.73;;
33152;SDS011;19509;43.862;26.176;2023-06-26T01:36:41;0.70;;;0.70;;
33152;SDS011;19509;43.862;26.176;2023-06-26T01:39:07;0.60;;;0.60;;
33152;SDS011;19509;43.862;26.176;2023-06-26T01:41:33;0.70;;;0.70;;
33152;SDS011;19509;43.862;26.176;2023-06-26T01:51:44;0.83;;;0.83;;
33152;SDS011;19509;43.862;26.176;2023-06-26T01:54:16;1.03;;;0.83;;
33152;SDS011;19509;43.862;26.176;2023-06-26T01:56:45;2.33;;;1.00;;
33152;SDS011;19509;43.862;26.176;2023-06-26T01:59:14;0.70;;;0.70;;
33152;SDS011;19509;43.862;26.176;2023-06-26T02:01:40;0.70;;;0.70;;
33152;SDS011;19509;43.862;26.176;2023-06-26T02:04:06;0.67;;;0.67;;
33152;SDS011;19509;43.862;26.176;2023-06-26T02:06:32;0.70;;;0.70;;
33152;SDS011;19509;43.862;26.176;2023-06-26T02:08:58;0.90;;;0.90;;
33152;SDS011;19509;43.862;26.176;2023-06-26T02:11:23;0.97;;;0.97;;
33152;SDS011;19509;43.862;26.176;2023-06-26T02:13:49;0.80;;;0.80;;
33152;SDS011;19509;43.862;26.176;2023-06-26T02:16:14;1.00;;;1.00;;
33152;SDS011;19509;43.862;26.176;2023-06-26T02:18:40;0.70;;;0.70;;
33152;SDS011;19509;43.862;26.176;2023-06-26T02:21:06;0.70;;;0.70;;
33152;SDS011;19509;43.862;26.176;2023-06-26T02:23:31;0.90;;;0.80;;
33152;SDS011;19509;43.862;26.176;2023-06-26T02:25:57;0.70;;;0.70;;
33152;SDS011;19509;43.862;26.176;2023-06-26T02:28:22;0.87;;;0.87;;
33152;SDS011;19509;43.862;26.176;2023-06-26T02:30:48;0.60;;;0.60;;
33152;SDS011;19509;43.862;26.176;2023-06-26T02:33:13;0.60;;;0.60;;
33152;SDS011;19509;43.862;26.176;2023-06-26T02:35:39;0.80;;;0.80;;
33152;SDS011;19509;43.862;26.176;2023-06-26T02:38:04;0.60;;;0.60;;
33152;SDS011;19509;43.862;26.176;2023-06-26T02:40:30;1.00;;;1.00;;
33152;SDS011;19509;43.862;26.176;2023-06-26T02:42:56;0.83;;;0.80;;
33152;SDS011;19509;43.862;26.176;2023-06-26T02:45:21;0.80;;;0.80;;
33152;SDS011;19509;43.862;26.176;2023-06-26T02:47:47;0.73;;;0.73;;
33152;SDS011;19509;43.862;26.176;2023-06-26T02:50:12;0.80;;;0.80;;
33152;SDS011;19509;43.862;26.176;2023-06-26T02:52:38;0.60;;;0.60;;
33152;SDS011;19509;43.862;26.176;2023-06-26T02:55:05;1.00;;;0.93;;
33152;SDS011;19509;43.862;26.176;2023-06-26T02:57:31;0.63;;;0.63;;
33152;SDS011;19509;43.862;26.176;2023-06-26T02:59:56;0.80;;;0.80;;
33152;SDS011;19509;43.862;26.176;2023-06-26T03:02:22;0.70;;;0.70;;
33152;SDS011;19509;43.862;26.176;2023-06-26T03:04:47;0.80;;;0.80;;
33152;SDS011;19509;43.862;26.176;2023-06-26T03:07:13;0.60;;;0.60;;
33152;SDS011;19509;43.862;26.176;2023-06-26T03:09:38;0.60;;;0.60;;
33152;SDS011;19509;43.862;26.176;2023-06-26T03:12:04;0.67;;;0.67;;
33152;SDS011;19509;43.862;26.176;2023-06-26T03:14:29;0.73;;;0.73;;
33152;SDS011;19509;43.862;26.176;2023-06-26T03:16:57;0.70;;;0.70;;
33152;SDS011;19509;43.862;26.176;2023-06-26T03:19:24;0.60;;;0.60;;
33152;SDS011;19509;43.862;26.176;2023-06-26T03:21:49;0.60;;;0.60;;
33152;SDS011;19509;43.862;26.176;2023-06-26T03:24:15;0.60;;;0.60;;
33152;SDS011;19509;43.862;26.176;2023-06-26T03:26:41;0.60;;;0.60;;
33152;SDS011;19509;43.862;26.176;2023-06-26T03:29:06;0.60;;;0.60;;
33152;SDS011;19509;43.862;26.176;2023-06-26T03:31:32;0.50;;;0.50;;
33152;SDS011;19509;43.862;26.176;2023-06-26T03:33:57;0.50;;;0.50;;
33152;SDS011;19509;43.862;26.176;2023-06-26T03:36:23;0.50;;;0.50;;
33152;SDS011;19509;43.862;26.176;2023-06-26T03:38:48;0.63;;;0.63;;
33152;SDS011;19509;43.862;26.176;2023-06-26T03:41:14;0.60;;;0.60;;
33152;SDS011;19509;43.862;26.176;2023-06-26T03:43:39;0.70;;;0.70;;
33152;SDS011;19509;43.862;26.176;2023-06-26T03:46:05;0.50;;;0.50;;
33152;SDS011;19509;43.862;26.176;2023-06-26T03:48:30;0.60;;;0.60;;
33152;SDS011;19509;43.862;26.176;2023-06-26T03:50:56;0.60;;;0.60;;
33152;SDS011;19509;43.862;26.176;2023-06-26T03:53:21;0.60;;;0.60;;
33152;SDS011;19509;43.862;26.176;2023-06-26T03:55:47;1.03;;;0.60;;
33152;SDS011;19509;43.862;26.176;2023-06-26T03:58:13;0.80;;;0.70;;
33152;SDS011;19509;43.862;26.176;2023-06-26T04:00:38;0.70;;;0.70;;
33152;SDS011;19509;43.862;26.176;2023-06-26T04:03:05;0.80;;;0.80;;
33152;SDS011;19509;43.862;26.176;2023-06-26T04:05:30;0.67;;;0.67;;
33152;SDS011;19509;43.862;26.176;2023-06-26T04:07:56;0.90;;;0.90;;
33152;SDS011;19509;43.862;26.176;2023-06-26T04:10:21;0.63;;;0.63;;
33152;SDS011;19509;43.862;26.176;2023-06-26T04:12:48;0.60;;;0.60;;
33152;SDS011;19509;43.862;26.176;2023-06-26T04:15:13;0.60;;;0.60;;
33152;SDS011;19509;43.862;26.176;2023-06-26T04:17:39;0.53;;;0.53;;
33152;SDS011;19509;43.862;26.176;2023-06-26T04:20:04;0.60;;;0.60;;
33152;SDS011;19509;43.862;26.176;2023-06-26T04:22:31;0.60;;;0.60;;
33152;SDS011;19509;43.862;26.176;2023-06-26T04:24:57;0.50;;;0.50;;
33152;SDS011;19509;43.862;26.176;2023-06-26T04:27:23;0.50;;;0.50;;
33152;SDS011;19509;43.862;26.176;2023-06-26T04:29:48;0.70;;;0.70;;
33152;SDS011;19509;43.862;26.176;2023-06-26T04:32:14;0.60;;;0.60;;
33152;SDS011;19509;43.862;26.176;2023-06-26T04:34:40;0.50;;;0.50;;
33152;SDS011;19509;43.862;26.176;2023-06-26T04:37:08;0.50;;;0.50;;
33152;SDS011;19509;43.862;26.176;2023-06-26T04:39:34;1.23;;;0.83;;
33152;SDS011;19509;43.862;26.176;2023-06-26T04:42:02;0.70;;;0.70;;
33152;SDS011;19509;43.862;26.176;2023-06-26T04:44:28;0.60;;;0.60;;
33152;SDS011;19509;43.862;26.176;2023-06-26T04:46:53;0.60;;;0.60;;
33152;SDS011;19509;43.862;26.176;2023-06-26T04:49:19;0.70;;;0.70;;
33152;SDS011;19509;43.862;26.176;2023-06-26T04:51:45;0.53;;;0.53;;
33152;SDS011;19509;43.862;26.176;2023-06-26T04:54:11;0.60;;;0.60;;
33152;SDS011;19509;43.862;26.176;2023-06-26T04:56:37;0.80;;;0.80;;
33152;SDS011;19509;43.862;26.176;2023-06-26T04:59:05;0.63;;;0.63;;
33152;SDS011;19509;43.862;26.176;2023-06-26T05:01:30;0.70;;;0.70;;
33152;SDS011;19509;43.862;26.176;2023-06-26T05:03:57;0.60;;;0.60;;
33152;SDS011;19509;43.862;26.176;2023-06-26T05:06:26;0.67;;;0.67;;
33152;SDS011;19509;43.862;26.176;2023-06-26T05:08:51;0.60;;;0.60;;
33152;SDS011;19509;43.862;26.176;2023-06-26T05:11:16;0.60;;;0.60;;
33152;SDS011;19509;43.862;26.176;2023-06-26T05:13:42;0.53;;;0.53;;
33152;SDS011;19509;43.862;26.176;2023-06-26T05:16:08;0.60;;;0.60;;
33152;SDS011;19509;43.862;26.176;2023-06-26T05:18:34;0.70;;;0.70;;
33152;SDS011;19509;43.862;26.176;2023-06-26T05:21:00;0.60;;;0.60;;
33152;SDS011;19509;43.862;26.176;2023-06-26T05:23:26;0.80;;;0.80;;
33152;SDS011;19509;43.862;26.176;2023-06-26T05:25:52;0.67;;;0.67;;
33152;SDS011;19509;43.862;26.176;2023-06-26T05:28:18;0.60;;;0.60;;
33152;SDS011;19509;43.862;26.176;2023-06-26T05:30:44;0.60;;;0.60;;
33152;SDS011;19509;43.862;26.176;2023-06-26T05:33:10;0.70;;;0.70;;
33152;SDS011;19509;43.862;26.176;2023-06-26T05:35:37;0.70;;;0.70;;
33152;SDS011;19509;43.862;26.176;2023-06-26T05:38:04;1.07;;;0.57;;
33152;SDS011;19509;43.862;26.176;2023-06-26T05:40:30;0.80;;;0.80;;
33152;SDS011;19509;43.862;26.176;2023-06-26T05:42:56;0.60;;;0.60;;
33152;SDS011;19509;43.862;26.176;2023-06-26T05:45:22;1.07;;;0.60;;
33152;SDS011;19509;43.862;26.176;2023-06-26T05:47:47;0.53;;;0.53;;
33152;SDS011;19509;43.862;26.176;2023-06-26T05:50:15;0.70;;;0.70;;
33152;SDS011;19509;43.862;26.176;2023-06-26T05:52:42;0.57;;;0.57;;
33152;SDS011;19509;43.862;26.176;2023-06-26T05:55:09;0.70;;;0.70;;
33152;SDS011;19509;43.862;26.176;2023-06-26T05:57:35;0.60;;;0.60;;
33152;SDS011;19509;43.862;26.176;2023-06-26T06:00:03;0.90;;;0.90;;
33152;SDS011;19509;43.862;26.176;2023-06-26T06:02:30;0.50;;;0.50;;
33152;SDS011;19509;43.862;26.176;2023-06-26T06:04:56;0.50;;;0.50;;
33152;SDS011;19509;43.862;26.176;2023-06-26T06:07:21;0.60;;;0.60;;
33152;SDS011;19509;43.862;26.176;2023-06-26T06:09:47;0.60;;;0.60;;
33152;SDS011;19509;43.862;26.176;2023-06-26T06:12:12;0.57;;;0.57;;
33152;SDS011;19509;43.862;26.176;2023-06-26T06:14:38;0.50;;;0.50;;
33152;SDS011;19509;43.862;26.176;2023-06-26T06:17:03;0.77;;;0.77;;
33152;SDS011;19509;43.862;26.176;2023-06-26T06:19:29;0.67;;;0.67;;
33152;SDS011;19509;43.862;26.176;2023-06-26T06:21:54;0.60;;;0.60;;
33152;SDS011;19509;43.862;26.176;2023-06-26T06:24:20;1.40;;;0.63;;
33152;SDS011;19509;43.862;26.176;2023-06-26T06:26:45;0.60;;;0.60;;
33152;SDS011;19509;43.862;26.176;2023-06-26T06:29:11;0.60;;;0.60;;
33152;SDS011;19509;43.862;26.176;2023-06-26T06:31:36;0.67;;;0.67;;
33152;SDS011;19509;43.862;26.176;2023-06-26T06:34:02;0.60;;;0.60;;
33152;SDS011;19509;43.862;26.176;2023-06-26T06:36:27;0.60;;;0.60;;
33152;SDS011;19509;43.862;26.176;2023-06-26T06:38:53;0.67;;;0.67;;
33152;SDS011;19509;43.862;26.176;2023-06-26T06:41:19;1.03;;;0.60;;
33152;SDS011;19509;43.862;26.176;2023-06-26T06:43:45;0.80;;;0.80;;
33152;SDS011;19509;43.862;26.176;2023-06-26T06:46:10;0.60;;;0.60;;
33152;SDS011;19509;43.862;26.176;2023-06-26T06:48:36;0.70;;;0.70;;
33152;SDS011;19509;43.862;26.176;2023-06-26T06:51:01;0.60;;;0.60;;
33152;SDS011;19509;43.862;26.176;2023-06-26T06:53:27;0.70;;;0.70;;
33152;SDS011;19509;43.862;26.176;2023-06-26T06:55:53;0.60;;;0.60;;
33152;SDS011;19509;43.862;26.176;2023-06-26T06:58:19;0.60;;;0.60;;
33152;SDS011;19509;43.862;26.176;2023-06-26T07:00:45;0.70;;;0.70;;
33152;SDS011;19509;43.862;26.176;2023-06-26T07:03:11;0.70;;;0.70;;
33152;SDS011;19509;43.862;26.176;2023-06-26T07:05:36;0.60;;;0.60;;
33152;SDS011;19509;43.862;26.176;2023-06-26T07:08:02;0.60;;;0.60;;
33152;SDS011;19509;43.862;26.176;2023-06-26T07:10:28;0.70;;;0.70;;
33152;SDS011;19509;43.862;26.176;2023-06-26T07:12:54;0.40;;;0.40;;
33152;SDS011;19509;43.862;26.176;2023-06-26T07:15:19;1.03;;;0.50;;
33152;SDS011;19509;43.862;26.176;2023-06-26T07:17:45;0.80;;;0.80;;
33152;SDS011;19509;43.862;26.176;2023-06-26T07:20:10;0.47;;;0.47;;
33152;SDS011;19509;43.862;26.176;2023-06-26T07:22:41;0.73;;;0.73;;
33152;SDS011;19509;43.862;26.176;2023-06-26T07:25:07;0.63;;;0.63;;
33152;SDS011;19509;43.862;26.176;2023-06-26T07:27:39;0.60;;;0.60;;
33152;SDS011;19509;43.862;26.176;2023-06-26T07:30:05;0.50;;;0.50;;
33152;SDS011;19509;43.862;26.176;2023-06-26T07:32:34;0.60;;;0.60;;
33152;SDS011;19509;43.862;26.176;2023-06-26T07:34:59;0.40;;;0.40;;
33152;SDS011;19509;43.862;26.176;2023-06-26T07:37:25;0.70;;;0.70;;
33152;SDS011;19509;43.862;26.176;2023-06-26T07:39:51;0.50;;;0.50;;
33152;SDS011;19509;43.862;26.176;2023-06-26T07:42:16;0.40;;;0.40;;
33152;SDS011;19509;43.862;26.176;2023-06-26T07:44:42;0.60;;;0.60;;
33152;SDS011;19509;43.862;26.176;2023-06-26T07:47:08;0.53;;;0.53;;
33152;SDS011;19509;43.862;26.176;2023-06-26T07:49:34;0.50;;;0.50;;
33152;SDS011;19509;43.862;26.176;2023-06-26T07:52:00;0.50;;;0.50;;
33152;SDS011;19509;43.862;26.176;2023-06-26T07:54:25;0.50;;;0.50;;
33152;SDS011;19509;43.862;26.176;2023-06-26T07:57:00;0.60;;;0.60;;
33152;SDS011;19509;43.862;26.176;2023-06-26T07:59:29;0.60;;;0.60;;
33152;SDS011;19509;43.862;26.176;2023-06-26T08:01:56;0.60;;;0.60;;
33152;SDS011;19509;43.862;26.176;2023-06-26T08:04:25;0.40;;;0.40;;
33152;SDS011;19509;43.862;26.176;2023-06-26T08:06:53;1.30;;;0.50;;
33152;SDS011;19509;43.862;26.176;2023-06-26T08:09:20;2.53;;;0.60;;
33152;SDS011;19509;43.862;26.176;2023-06-26T08:11:46;0.60;;;0.60;;
33152;SDS011;19509;43.862;26.176;2023-06-26T08:14:12;0.53;;;0.53;;
33152;SDS011;19509;43.862;26.176;2023-06-26T08:16:39;0.50;;;0.50;;
33152;SDS011;19509;43.862;26.176;2023-06-26T08:19:05;0.60;;;0.60;;
33152;SDS011;19509;43.862;26.176;2023-06-26T08:21:30;0.57;;;0.57;;
33152;SDS011;19509;43.862;26.176;2023-06-26T08:23:56;0.57;;;0.57;;
33152;SDS011;19509;43.862;26.176;2023-06-26T08:26:22;0.60;;;0.60;;
33152;SDS011;19509;43.862;26.176;2023-06-26T08:28:48;0.50;;;0.50;;
33152;SDS011;19509;43.862;26.176;2023-06-26T08:31:13;0.80;;;0.80;;
33152;SDS011;19509;43.862;26.176;2023-06-26T08:33:39;0.40;;;0.40;;
33152;SDS011;19509;43.862;26.176;2023-06-26T08:36:04;0.60;;;0.60;;
33152;SDS011;19509;43.862;26.176;2023-06-26T08:38:30;0.40;;;0.40;;
33152;SDS011;19509;43.862;26.176;2023-06-26T08:40:55;0.50;;;0.50;;
33152;SDS011;19509;43.862;26.176;2023-06-26T08:43:21;0.50;;;0.50;;
33152;SDS011;19509;43.862;26.176;2023-06-26T08:45:47;0.40;;;0.40;;
33152;SDS011;19509;43.862;26.176;2023-06-26T08:48:16;0.43;;;0.43;;
33152;SDS011;19509;43.862;26.176;2023-06-26T08:50:42;0.50;;;0.50;;
33152;SDS011;19509;43.862;26.176;2023-06-26T08:53:11;0.50;;;0.50;;
33152;SDS011;19509;43.862;26.176;2023-06-26T08:55:43;0.40;;;0.40;;
33152;SDS011;19509;43.862;26.176;2023-06-26T08:58:10;0.50;;;0.50;;
33152;SDS011;19509;43.862;26.176;2023-06-26T09:00:36;0.50;;;0.50;;
33152;SDS011;19509;43.862;26.176;2023-06-26T09:03:03;0.50;;;0.50;;
33152;SDS011;19509;43.862;26.176;2023-06-26T09:05:29;0.50;;;0.50;;
33152;SDS011;19509;43.862;26.176;2023-06-26T09:07:57;0.40;;;0.40;;
33152;SDS011;19509;43.862;26.176;2023-06-26T09:10:23;0.50;;;0.50;;
33152;SDS011;19509;43.862;26.176;2023-06-26T09:12:49;0.53;;;0.53;;
33152;SDS011;19509;43.862;26.176;2023-06-26T09:15:15;0.60;;;0.60;;
33152;SDS011;19509;43.862;26.176;2023-06-26T09:17:40;0.40;;;0.40;;
33152;SDS011;19509;43.862;26.176;2023-06-26T09:20:07;0.60;;;0.60;;
33152;SDS011;19509;43.862;26.176;2023-06-26T09:22:33;0.47;;;0.47;;
33152;SDS011;19509;43.862;26.176;2023-06-26T09:25:03;0.50;;;0.50;;
33152;SDS011;19509;43.862;26.176;2023-06-26T09:27:30;1.07;;;0.50;;
33152;SDS011;19509;43.862;26.176;2023-06-26T09:29:56;0.87;;;0.43;;
33152;SDS011;19509;43.862;26.176;2023-06-26T09:32:24;0.73;;;0.60;;
33152;SDS011;19509;43.862;26.176;2023-06-26T09:34:51;0.40;;;0.40;;
33152;SDS011;19509;43.862;26.176;2023-06-26T09:37:18;0.60;;;0.50;;
33152;SDS011;19509;43.862;26.176;2023-06-26T09:39:44;0.50;;;0.50;;
33152;SDS011;19509;43.862;26.176;2023-06-26T09:42:10;0.50;;;0.50;;
33152;SDS011;19509;43.862;26.176;2023-06-26T09:44:43;0.50;;;0.50;;
33152;SDS011;19509;43.862;26.176;2023-06-26T09:47:12;0.40;;;0.40;;
33152;SDS011;19509;43.862;26.176;2023-06-26T09:49:41;0.50;;;0.50;;
33152;SDS011;19509;43.862;26.176;2023-06-26T09:52:10;0.40;;;0.40;;
33152;SDS011;19509;43.862;26.176;2023-06-26T09:54:40;0.40;;;0.40;;
33152;SDS011;19509;43.862;26.176;2023-06-26T09:57:09;0.40;;;0.40;;
33152;SDS011;19509;43.862;26.176;2023-06-26T09:59:36;0.40;;;0.40;;
33152;SDS011;19509;43.862;26.176;2023-06-26T10:02:02;0.40;;;0.40;;
33152;SDS011;19509;43.862;26.176;2023-06-26T10:04:28;0.40;;;0.40;;
33152;SDS011;19509;43.862;26.176;2023-06-26T10:06:57;0.40;;;0.40;;
33152;SDS011;19509;43.862;26.176;2023-06-26T10:09:26;0.33;;;0.33;;
33152;SDS011;19509;43.862;26.176;2023-06-26T10:14:26;0.40;;;0.40;;
33152;SDS011;19509;43.862;26.176;2023-06-26T10:16:56;1.50;;;0.40;;
33152;SDS011;19509;43.862;26.176;2023-06-26T10:19:25;0.40;;;0.40;;
33152;SDS011;19509;43.862;26.176;2023-06-26T10:21:53;0.40;;;0.40;;
33152;SDS011;19509;43.862;26.176;2023-06-26T10:24:20;0.40;;;0.40;;
33152;SDS011;19509;43.862;26.176;2023-06-26T10:26:49;0.30;;;0.30;;
33152;SDS011;19509;43.862;26.176;2023-06-26T10:29:17;0.40;;;0.40;;
33152;SDS011;19509;43.862;26.176;2023-06-26T10:31:47;0.30;;;0.30;;
33152;SDS011;19509;43.862;26.176;2023-06-26T10:34:17;0.40;;;0.40;;
33152;SDS011;19509;43.862;26.176;2023-06-26T10:36:43;0.50;;;0.33;;
33152;SDS011;19509;43.862;26.176;2023-06-26T10:39:09;0.30;;;0.30;;
33152;SDS011;19509;43.862;26.176;2023-06-26T10:41:38;0.40;;;0.40;;
33152;SDS011;19509;43.862;26.176;2023-06-26T10:44:10;0.40;;;0.40;;
33152;SDS011;19509;43.862;26.176;2023-06-26T10:46:52;0.33;;;0.33;;
33152;SDS011;19509;43.862;26.176;2023-06-26T10:49:19;0.30;;;0.30;;
33152;SDS011;19509;43.862;26.176;2023-06-26T10:51:49;0.73;;;0.40;;
33152;SDS011;19509;43.862;26.176;2023-06-26T10:54:19;0.30;;;0.30;;
33152;SDS011;19509;43.862;26.176;2023-06-26T10:56:50;0.40;;;0.40;;
33152;SDS011;19509;43.862;26.176;2023-06-26T10:59:21;0.50;;;0.50;;
33152;SDS011;19509;43.862;26.176;2023-06-26T11:01:56;0.40;;;0.40;;
33152;SDS011;19509;43.862;26.176;2023-06-26T11:07:21;0.40;;;0.40;;
33152;SDS011;19509;43.862;26.176;2023-06-26T11:09:55;0.47;;;0.47;;
33152;SDS011;19509;43.862;26.176;2023-06-26T11:12:42;0.43;;;0.43;;
33152;SDS011;19509;43.862;26.176;2023-06-26T11:15:09;0.50;;;0.50;;
33152;SDS011;19509;43.862;26.176;2023-06-26T11:17:39;0.50;;;0.50;;
33152;SDS011;19509;43.862;26.176;2023-06-26T11:20:06;0.63;;;0.63;;
33152;SDS011;19509;43.862;26.176;2023-06-26T11:22:36;0.40;;;0.40;;
33152;SDS011;19509;43.862;26.176;2023-06-26T11:25:03;2.00;;;0.40;;
33152;SDS011;19509;43.862;26.176;2023-06-26T11:27:52;2.97;;;0.50;;
33152;SDS011;19509;43.862;26.176;2023-06-26T11:30:25;0.47;;;0.47;;
33152;SDS011;19509;43.862;26.176;2023-06-26T11:32:51;0.30;;;0.30;;
33152;SDS011;19509;43.862;26.176;2023-06-26T11:35:23;0.50;;;0.50;;
33152;SDS011;19509;43.862;26.176;2023-06-26T11:38:02;0.50;;;0.50;;
33152;SDS011;19509;43.862;26.176;2023-06-26T11:40:32;0.47;;;0.47;;
33152;SDS011;19509;43.862;26.176;2023-06-26T11:42:59;0.37;;;0.37;;
33152;SDS011;19509;43.862;26.176;2023-06-26T11:45:27;0.40;;;0.40;;
33152;SDS011;19509;43.862;26.176;2023-06-26T11:47:57;0.40;;;0.40;;
33152;SDS011;19509;43.862;26.176;2023-06-26T11:50:23;0.40;;;0.40;;
33152;SDS011;19509;43.862;26.176;2023-06-26T11:52:53;0.50;;;0.50;;
33152;SDS011;19509;43.862;26.176;2023-06-26T11:55:24;0.77;;;0.50;;
33152;SDS011;19509;43.862;26.176;2023-06-26T11:57:52;0.40;;;0.40;;
33152;SDS011;19509;43.862;26.176;2023-06-26T12:00:19;0.57;;;0.40;;
33152;SDS011;19509;43.862;26.176;2023-06-26T12:02:45;0.50;;;0.50;;
33152;SDS011;19509;43.862;26.176;2023-06-26T12:05:12;0.40;;;0.40;;
33152;SDS011;19509;43.862;26.176;2023-06-26T12:07:39;0.50;;;0.50;;
33152;SDS011;19509;43.862;26.176;2023-06-26T12:10:06;0.43;;;0.43;;
33152;SDS011;19509;43.862;26.176;2023-06-26T12:12:32;0.40;;;0.40;;
33152;SDS011;19509;43.862;26.176;2023-06-26T12:14:58;0.47;;;0.40;;
33152;SDS011;19509;43.862;26.176;2023-06-26T12:17:25;0.40;;;0.40;;
33152;SDS011;19509;43.862;26.176;2023-06-26T12:19:50;0.43;;;0.43;;
33152;SDS011;19509;43.862;26.176;2023-06-26T12:22:17;0.40;;;0.40;;
33152;SDS011;19509;43.862;26.176;2023-06-26T12:24:44;0.40;;;0.40;;
33152;SDS011;19509;43.862;26.176;2023-06-26T12:27:11;0.50;;;0.50;;
33152;SDS011;19509;43.862;26.176;2023-06-26T12:29:39;1.90;;;0.43;;
33152;SDS011;19509;43.862;26.176;2023-06-26T12:32:09;0.67;;;0.60;;
33152;SDS011;19509;43.862;26.176;2023-06-26T12:34:36;0.50;;;0.50;;
33152;SDS011;19509;43.862;26.176;2023-06-26T12:37:04;0.40;;;0.40;;
33152;SDS011;19509;43.862;26.176;2023-06-26T12:39:46;0.40;;;0.40;;
33152;SDS011;19509;43.862;26.176;2023-06-26T12:42:19;0.40;;;0.40;;
33152;SDS011;19509;43.862;26.176;2023-06-26T12:44:47;0.50;;;0.50;;
33152;SDS011;19509;43.862;26.176;2023-06-26T12:47:14;0.50;;;0.50;;
33152;SDS011;19509;43.862;26.176;2023-06-26T12:49:41;0.40;;;0.40;;
33152;SDS011;19509;43.862;26.176;2023-06-26T12:52:09;0.63;;;0.40;;
33152;SDS011;19509;43.862;26.176;2023-06-26T12:54:39;0.40;;;0.40;;
33152;SDS011;19509;43.862;26.176;2023-06-26T12:57:07;0.50;;;0.50;;
33152;SDS011;19509;43.862;26.176;2023-06-26T12:59:33;0.40;;;0.40;;
33152;SDS011;19509;43.862;26.176;2023-06-26T13:02:00;0.40;;;0.40;;
33152;SDS011;19509;43.862;26.176;2023-06-26T13:04:27;0.40;;;0.40;;
33152;SDS011;19509;43.862;26.176;2023-06-26T13:06:53;0.50;;;0.50;;
33152;SDS011;19509;43.862;26.176;2023-06-26T13:09:22;0.50;;;0.50;;
33152;SDS011;19509;43.862;26.176;2023-06-26T13:11:49;0.40;;;0.40;;
33152;SDS011;19509;43.862;26.176;2023-06-26T13:14:15;0.90;;;0.50;;
33152;SDS011;19509;43.862;26.176;2023-06-26T13:16:41;0.40;;;0.40;;
33152;SDS011;19509;43.862;26.176;2023-06-26T13:19:07;0.40;;;0.40;;
33152;SDS011;19509;43.862;26.176;2023-06-26T13:21:35;1.60;;;0.40;;
33152;SDS011;19509;43.862;26.176;2023-06-26T13:24:01;0.40;;;0.40;;
33152;SDS011;19509;43.862;26.176;2023-06-26T13:26:29;0.50;;;0.50;;
33152;SDS011;19509;43.862;26.176;2023-06-26T13:28:55;0.40;;;0.40;;
33152;SDS011;19509;43.862;26.176;2023-06-26T13:31:20;1.20;;;0.50;;
33152;SDS011;19509;43.862;26.176;2023-06-26T13:33:46;0.37;;;0.37;;
33152;SDS011;19509;43.862;26.176;2023-06-26T13:36:17;0.40;;;0.40;;
33152;SDS011;19509;43.862;26.176;2023-06-26T13:38:43;0.50;;;0.50;;
33152;SDS011;19509;43.862;26.176;2023-06-26T13:41:08;0.50;;;0.50;;
33152;SDS011;19509;43.862;26.176;2023-06-26T13:43:34;0.40;;;0.40;;
33152;SDS011;19509;43.862;26.176;2023-06-26T13:45:59;0.40;;;0.40;;
33152;SDS011;19509;43.862;26.176;2023-06-26T13:48:25;0.40;;;0.40;;
33152;SDS011;19509;43.862;26.176;2023-06-26T13:50:51;0.40;;;0.40;;
33152;SDS011;19509;43.862;26.176;2023-06-26T13:53:17;0.83;;;0.50;;
33152;SDS011;19509;43.862;26.176;2023-06-26T13:55:42;0.40;;;0.40;;
33152;SDS011;19509;43.862;26.176;2023-06-26T13:58:08;1.50;;;0.40;;
33152;SDS011;19509;43.862;26.176;2023-06-26T14:00:35;0.40;;;0.40;;
33152;SDS011;19509;43.862;26.176;2023-06-26T14:03:01;0.40;;;0.40;;
33152;SDS011;19509;43.862;26.176;2023-06-26T14:05:28;0.40;;;0.40;;
33152;SDS011;19509;43.862;26.176;2023-06-26T14:07:56;0.40;;;0.40;;
33152;SDS011;19509;43.862;26.176;2023-06-26T14:10:22;0.40;;;0.40;;
33152;SDS011;19509;43.862;26.176;2023-06-26T14:12:48;0.50;;;0.50;;
33152;SDS011;19509;43.862;26.176;2023-06-26T14:15:14;0.40;;;0.40;;
33152;SDS011;19509;43.862;26.176;2023-06-26T14:17:40;0.40;;;0.40;;
33152;SDS011;19509;43.862;26.176;2023-06-26T14:20:06;0.30;;;0.30;;
33152;SDS011;19509;43.862;26.176;2023-06-26T14:22:38;0.57;;;0.57;;
33152;SDS011;19509;43.862;26.176;2023-06-26T14:25:05;0.40;;;0.40;;
33152;SDS011;19509;43.862;26.176;2023-06-26T14:27:32;0.40;;;0.40;;
33152;SDS011;19509;43.862;26.176;2023-06-26T14:29:57;0.40;;;0.40;;
33152;SDS011;19509;43.862;26.176;2023-06-26T14:32:23;0.40;;;0.40;;
33152;SDS011;19509;43.862;26.176;2023-06-26T14:34:48;0.40;;;0.40;;
33152;SDS011;19509;43.862;26.176;2023-06-26T14:37:14;1.33;;;0.40;;
33152;SDS011;19509;43.862;26.176;2023-06-26T14:39:39;0.40;;;0.40;;
33152;SDS011;19509;43.862;26.176;2023-06-26T14:42:05;0.40;;;0.40;;
33152;SDS011;19509;43.862;26.176;2023-06-26T14:44:30;0.30;;;0.30;;